createdAt,value
2023-03-21T00:01:08.591Z,101465.31
2023-03-21T00:03:37.934Z,101465.25
2023-03-21T00:06:11.351Z,101459.09
2023-03-21T00:08:40.592Z,101445.84
2023-03-21T00:11:11.026Z,101446.75
2023-03-21T00:13:42.310Z,101421.97
2023-03-21T00:16:20.977Z,101439.63
2023-03-21T00:18:55.977Z,101422.84
2023-03-21T00:22:05.493Z,101451.13
2023-03-21T00:24:20.993Z,101445.81
2023-03-21T00:26:49.423Z,101445.84
2023-03-21T00:29:18.017Z,101446.69
2023-03-21T00:31:48.294Z,101438.75
2023-03-21T00:34:20.150Z,101446.72
2023-03-21T00:36:57.424Z,101434.38
2023-03-21T00:39:25.984Z,101433.50
2023-03-21T00:41:54.409Z,101429.91
2023-03-21T00:44:23.541Z,101436.13
2023-03-21T00:47:06.344Z,101435.22
2023-03-21T00:49:38.172Z,101424.63
2023-03-21T00:52:24.761Z,101429.06
2023-03-21T00:54:59.526Z,101429.09
2023-03-21T00:57:38.583Z,101429.97
2023-03-21T01:00:10.930Z,101420.25
2023-03-21T01:02:43.454Z,101411.41
2023-03-21T01:05:23.242Z,101406.09
2023-03-21T01:07:53.366Z,101406.13
2023-03-21T01:10:23.562Z,101405.22
2023-03-21T01:12:51.996Z,101400.81
2023-03-21T01:15:20.707Z,101396.41
2023-03-21T01:17:49.011Z,101390.22
2023-03-21T01:20:17.531Z,101395.53
2023-03-21T01:22:45.928Z,101396.41
2023-03-21T01:25:22.425Z,101376.06
2023-03-21T01:27:51.598Z,101388.44
2023-03-21T01:30:23.917Z,101382.25
2023-03-21T01:32:53.578Z,101375.19
2023-03-21T01:35:23.013Z,101375.19
2023-03-21T01:37:51.807Z,101383.13
2023-03-21T01:40:25.849Z,101384.00
2023-03-21T01:43:01.737Z,101387.56
2023-03-21T01:46:37.217Z,101391.09
2023-03-21T01:49:26.165Z,101387.56
2023-03-21T01:52:14.001Z,101383.13
2023-03-21T01:54:47.696Z,101394.63
2023-03-21T01:57:25.891Z,101383.16
2023-03-21T01:59:56.459Z,101391.09
2023-03-21T02:02:29.153Z,101376.97
2023-03-21T02:05:07.435Z,101372.56
2023-03-21T02:07:41.864Z,101373.44
2023-03-21T02:10:13.840Z,101376.06
2023-03-21T02:12:47.848Z,101368.09
2023-03-21T02:15:17.140Z,101366.34
2023-03-21T02:18:08.540Z,101359.28
2023-03-21T02:21:20.235Z,101358.38
2023-03-21T02:24:54.602Z,101350.41
2023-03-21T02:27:30.848Z,101318.66
2023-03-21T02:30:52.071Z,101346.00
2023-03-21T02:34:02.228Z,101339.81
2023-03-21T02:37:03.786Z,101336.31
2023-03-21T02:39:48.021Z,101308.06
2023-03-21T02:42:21.712Z,101334.56
2023-03-21T02:45:00.788Z,101331.94
2023-03-21T02:47:35.224Z,101328.38
2023-03-21T02:50:13.147Z,101320.41
2023-03-21T02:52:47.094Z,101323.03
2023-03-21T02:55:21.108Z,101323.06
2023-03-21T02:58:11.676Z,101338.06
2023-03-21T03:00:45.322Z,101327.50
2023-03-21T03:03:31.478Z,101331.00
2023-03-21T03:06:04.274Z,101319.50
2023-03-21T03:08:56.095Z,101322.16
2023-03-21T03:11:31.382Z,101293.06
2023-03-21T03:14:39.985Z,101321.28
2023-03-21T03:17:23.600Z,101315.06
2023-03-21T03:20:17.510Z,101321.25
2023-03-21T03:22:58.234Z,101276.25
2023-03-21T03:25:42.536Z,101307.13
2023-03-21T03:28:16.632Z,101310.66
2023-03-21T03:31:00.773Z,101305.34
2023-03-21T03:33:42.362Z,101309.75
2023-03-21T03:36:28.694Z,101315.00
2023-03-21T03:38:59.683Z,101304.44
2023-03-21T03:41:36.568Z,101309.75
2023-03-21T03:44:19.261Z,101313.25
2023-03-21T03:47:01.052Z,101302.69
2023-03-21T03:49:33.904Z,101302.66
2023-03-21T03:52:12.451Z,101308.81
2023-03-21T03:54:50.986Z,101296.47
2023-03-21T03:57:22.191Z,101300.00
2023-03-21T03:59:50.898Z,101297.34
2023-03-21T04:02:20.432Z,101298.19
2023-03-21T04:04:53.413Z,101296.47
2023-03-21T04:07:23.106Z,101291.16
2023-03-21T04:09:53.925Z,101289.38
2023-03-21T04:12:24.070Z,101293.84
2023-03-21T04:15:13.232Z,101284.97
2023-03-21T04:17:47.264Z,101277.00
2023-03-21T04:20:23.790Z,101286.75
2023-03-21T04:23:03.170Z,101275.22
2023-03-21T04:25:35.013Z,101265.47
2023-03-21T04:28:07.449Z,101258.44
2023-03-21T04:31:00.427Z,101263.72
2023-03-21T04:33:32.412Z,101265.44
2023-03-21T04:36:01.151Z,101264.53
2023-03-21T04:38:33.924Z,101264.63
2023-03-21T04:41:05.302Z,101261.97
2023-03-21T04:43:34.961Z,101268.13
2023-03-21T04:46:04.061Z,101262.81
2023-03-21T04:48:32.524Z,101256.63
2023-03-21T04:51:02.283Z,101255.75
2023-03-21T04:53:30.569Z,101245.16
2023-03-21T04:55:59.016Z,101243.38
2023-03-21T04:58:27.505Z,101242.50
2023-03-21T05:00:57.353Z,101249.63
2023-03-21T05:03:25.748Z,101244.28
2023-03-21T05:05:53.963Z,101234.66
2023-03-21T05:08:23.607Z,101232.84
2023-03-21T05:10:52.226Z,101231.94
2023-03-21T05:13:21.890Z,101237.22
2023-03-21T05:15:50.856Z,101239.88
2023-03-21T05:18:24.774Z,101249.56
2023-03-21T05:21:13.455Z,101244.28
2023-03-21T05:23:42.266Z,101246.03
2023-03-21T05:26:11.869Z,101235.47
2023-03-21T05:28:48.097Z,101248.69
2023-03-21T05:31:17.198Z,101231.88
2023-03-21T05:33:49.476Z,101235.47
2023-03-21T05:36:20.396Z,101245.16
2023-03-21T05:38:48.970Z,101245.09
2023-03-21T05:41:19.391Z,101236.31
2023-03-21T05:43:48.520Z,101245.09
2023-03-21T05:46:17.513Z,101250.41
2023-03-21T05:48:47.983Z,101232.72
2023-03-21T05:51:19.991Z,101245.09
2023-03-21T05:53:48.576Z,101240.72
2023-03-21T05:56:17.837Z,101246.91
2023-03-21T05:59:06.454Z,101242.50
2023-03-21T06:01:40.473Z,101244.25
2023-03-21T06:04:15.782Z,101248.72
2023-03-21T06:06:44.967Z,101244.31
2023-03-21T06:09:14.361Z,101238.13
2023-03-21T06:11:51.295Z,101240.75
2023-03-21T06:14:26.941Z,101246.91
2023-03-21T06:17:15.955Z,101240.75
2023-03-21T06:19:51.312Z,101216.09
2023-03-21T06:22:25.158Z,101248.75
2023-03-21T06:24:53.837Z,101248.69
2023-03-21T06:27:22.239Z,101244.28
2023-03-21T06:29:57.998Z,101241.63
2023-03-21T06:32:26.925Z,101249.63
2023-03-21T06:35:01.060Z,101235.56
2023-03-21T06:37:29.512Z,101248.78
2023-03-21T06:39:58.115Z,101247.88
2023-03-21T06:42:27.030Z,101238.16
2023-03-21T06:45:01.121Z,101235.56
2023-03-21T06:47:30.415Z,101229.31
2023-03-21T06:50:00.174Z,101219.59
2023-03-21T06:52:28.779Z,101222.28
2023-03-21T06:54:57.160Z,101210.81
2023-03-21T06:57:25.485Z,101206.47
2023-03-21T06:59:54.168Z,101204.69
2023-03-21T07:02:25.239Z,101199.34
2023-03-21T07:05:10.689Z,101207.31
2023-03-21T07:07:39.263Z,101195.81
2023-03-21T07:10:11.437Z,101194.91
2023-03-21T07:13:09.078Z,101202.81
2023-03-21T07:15:45.586Z,101197.56
2023-03-21T07:18:14.389Z,101201.09
2023-03-21T07:20:50.943Z,101198.47
2023-03-21T07:23:20.457Z,101201.06
2023-03-21T07:25:50.084Z,101207.38
2023-03-21T07:28:19.519Z,101208.25
2023-03-21T07:30:56.374Z,101189.69
2023-03-21T07:33:26.747Z,101202.03
2023-03-21T07:36:01.687Z,101186.19
2023-03-21T07:38:31.428Z,101201.19
2023-03-21T07:41:01.489Z,101190.56
2023-03-21T07:43:33.137Z,101187.03
2023-03-21T07:46:01.932Z,101185.28
2023-03-21T07:48:30.720Z,101186.19
2023-03-21T07:51:02.285Z,101150.06
2023-03-21T07:53:30.746Z,101191.47
2023-03-21T07:55:59.110Z,101194.16
2023-03-21T07:58:28.551Z,101182.69
2023-03-21T08:00:57.271Z,101182.66
2023-03-21T08:03:26.402Z,101149.13
2023-03-21T08:05:54.775Z,101160.56
2023-03-21T08:08:24.447Z,101179.13
2023-03-21T08:10:52.752Z,101165.88
2023-03-21T08:13:21.070Z,101173.78
2023-03-21T08:15:49.384Z,101171.16
2023-03-21T08:18:17.692Z,101174.66
2023-03-21T08:20:46.098Z,101173.72
2023-03-21T08:23:14.789Z,101169.31
2023-03-21T08:25:44.616Z,101159.59
2023-03-21T08:28:13.010Z,101164.91
2023-03-21T08:30:41.350Z,101155.13
2023-03-21T08:33:09.770Z,101159.53
2023-03-21T08:35:40.911Z,101135.69
2023-03-21T08:38:10.058Z,101144.41
2023-03-21T08:40:39.071Z,101149.69
2023-03-21T08:43:08.983Z,101123.13
2023-03-21T08:45:37.553Z,101143.41
2023-03-21T08:48:06.777Z,101157.53
2023-03-21T08:50:36.040Z,101150.47
2023-03-21T08:53:04.633Z,101145.09
2023-03-21T08:55:33.247Z,101142.34
2023-03-21T08:58:01.984Z,101129.06
2023-03-21T09:00:32.344Z,101132.50
2023-03-21T09:03:01.560Z,101120.00
2023-03-21T09:05:29.938Z,101127.03
2023-03-21T09:07:58.316Z,101120.78
2023-03-21T09:10:26.763Z,101134.84
2023-03-21T09:12:56.570Z,101098.66
2023-03-21T09:15:28.748Z,101130.34
2023-03-21T09:18:12.969Z,101119.75
2023-03-21T09:20:43.135Z,101115.19
2023-03-21T09:23:13.169Z,101132.00
2023-03-21T09:25:42.304Z,101118.66
2023-03-21T09:28:10.713Z,101115.00
2023-03-21T09:30:39.519Z,101115.94
2023-03-21T09:33:13.083Z,101116.06
2023-03-21T09:35:42.860Z,101014.75
2023-03-21T09:38:11.188Z,101114.28
2023-03-21T09:40:59.481Z,101114.22
2023-03-21T09:43:42.548Z,101113.31
2023-03-21T09:46:18.876Z,101107.03
2023-03-21T09:48:57.868Z,101118.56
2023-03-21T09:51:31.697Z,101128.19
2023-03-21T09:54:04.929Z,101138.00
2023-03-21T09:56:33.566Z,101111.53
2023-03-21T09:59:03.742Z,101118.47
2023-03-21T10:01:35.196Z,101102.63
2023-03-21T10:04:08.025Z,101109.69
2023-03-21T10:06:41.192Z,101113.25
2023-03-21T10:09:15.830Z,101103.56
2023-03-21T10:11:48.749Z,101115.94
2023-03-21T10:14:22.725Z,101110.69
2023-03-21T10:16:53.868Z,101133.59
2023-03-21T10:19:23.655Z,101126.59
2023-03-21T10:22:03.131Z,101133.63
2023-03-21T10:24:35.348Z,101143.41
2023-03-21T10:27:05.598Z,101143.50
2023-03-21T10:29:42.233Z,101143.50
2023-03-21T10:32:13.164Z,101140.78
2023-03-21T10:34:46.346Z,101131.13
2023-03-21T10:37:17.019Z,101106.41
2023-03-21T10:39:46.619Z,101125.94
2023-03-21T10:42:21.907Z,101121.47
2023-03-21T10:44:52.833Z,101124.91
2023-03-21T10:47:24.342Z,101123.06
2023-03-21T10:50:11.018Z,101123.06
2023-03-21T10:52:48.237Z,101092.19
2023-03-21T10:55:24.405Z,101089.38
2023-03-21T10:57:59.014Z,101084.69
2023-03-21T11:00:31.806Z,101084.63
2023-03-21T11:03:00.968Z,101083.84
2023-03-21T11:05:39.364Z,101079.41
2023-03-21T11:08:13.771Z,101087.44
2023-03-21T11:10:54.608Z,101104.22
2023-03-21T11:13:26.815Z,101086.50
2023-03-21T11:15:58.222Z,101099.94
2023-03-21T11:18:28.476Z,101106.09
2023-03-21T11:21:03.535Z,101114.03
2023-03-21T11:23:34.449Z,101103.41
2023-03-21T11:26:04.305Z,101106.97
2023-03-21T11:28:38.005Z,101107.88
2023-03-21T11:31:09.200Z,101117.66
2023-03-21T11:33:41.359Z,101114.91
2023-03-21T11:36:33.754Z,101097.13
2023-03-21T11:39:16.306Z,101094.19
2023-03-21T11:41:49.227Z,101094.88
2023-03-21T11:44:30.586Z,101101.59
2023-03-21T11:46:59.363Z,101101.59
2023-03-21T11:49:28.732Z,101092.69
2023-03-21T11:52:15.159Z,101089.88
2023-03-21T11:55:07.517Z,101090.44
2023-03-21T11:57:45.859Z,101093.75
2023-03-21T12:00:22.546Z,101110.91
2023-03-21T12:03:47.787Z,101083.00
2023-03-21T12:06:26.677Z,101044.16
2023-03-21T12:09:24.316Z,101077.69
2023-03-21T12:12:06.184Z,101076.72
2023-03-21T12:14:45.240Z,101075.81
2023-03-21T12:17:31.875Z,101074.75
2023-03-21T12:20:31.720Z,101062.63
2023-03-21T12:23:48.472Z,101063.53
2023-03-21T12:26:27.176Z,101061.66
2023-03-21T12:29:27.270Z,101053.63
2023-03-21T12:32:21.045Z,101052.47
2023-03-21T12:35:17.618Z,101049.03
2023-03-21T12:37:59.293Z,101043.81
2023-03-21T12:40:50.910Z,101049.84
2023-03-21T12:43:42.437Z,101033.84
2023-03-21T12:46:18.154Z,101037.22
2023-03-21T12:48:51.309Z,101043.47
2023-03-21T12:51:25.019Z,101041.81
2023-03-21T12:54:02.018Z,101053.00
2023-03-21T12:56:35.189Z,101040.72
2023-03-21T12:59:19.360Z,101055.22
2023-03-21T13:01:49.202Z,101032.22
2023-03-21T13:04:38.121Z,101014.50
2023-03-21T13:07:11.533Z,101008.31
2023-03-21T13:09:42.464Z,101004.84
2023-03-21T13:12:42.360Z,101015.63
2023-03-21T13:15:40.571Z,101011.91
2023-03-21T13:18:22.202Z,101009.22
2023-03-21T13:20:54.710Z,101021.81
2023-03-21T13:23:24.926Z,101013.03
2023-03-21T13:25:56.298Z,101021.06
2023-03-21T13:28:29.318Z,101013.06
2023-03-21T13:31:19.661Z,101010.63
2023-03-21T13:33:49.884Z,101008.63
2023-03-21T13:36:27.595Z,100997.19
2023-03-21T13:39:04.038Z,101005.88
2023-03-21T13:41:36.395Z,100999.78
2023-03-21T13:44:20.980Z,100990.88
2023-03-21T13:46:57.240Z,100982.16
2023-03-21T13:49:32.724Z,100995.03
2023-03-21T13:52:03.103Z,100983.56
2023-03-21T13:54:51.053Z,100980.09
2023-03-21T13:57:39.982Z,100987.97
2023-03-21T14:00:30.061Z,100986.34
2023-03-21T14:03:06.850Z,100983.72
2023-03-21T14:05:37.576Z,100982.16
2023-03-21T14:08:15.715Z,100996.16
2023-03-21T14:10:50.097Z,100975.59
2023-03-21T14:13:22.459Z,100978.50
2023-03-21T14:15:56.857Z,100961.03
2023-03-21T14:18:53.012Z,100992.69
2023-03-21T14:21:24.235Z,100988.19
2023-03-21T14:24:01.987Z,100987.34
2023-03-21T14:26:34.321Z,100990.13
2023-03-21T14:29:12.419Z,101002.66
2023-03-21T14:31:49.454Z,100984.81
2023-03-21T14:34:19.898Z,101010.59
2023-03-21T14:36:56.917Z,100985.72
2023-03-21T14:39:30.729Z,100976.09
2023-03-21T14:42:04.996Z,100976.06
2023-03-21T14:44:53.391Z,100978.59
2023-03-21T14:47:25.178Z,100968.91
2023-03-21T14:49:55.456Z,100965.38
2023-03-21T14:52:26.991Z,100961.78
2023-03-21T14:54:56.896Z,100957.50
2023-03-21T14:57:30.407Z,100960.41
2023-03-21T15:00:04.691Z,100968.28
2023-03-21T15:02:36.630Z,100969.06
2023-03-21T15:05:15.546Z,100955.72
2023-03-21T15:07:43.869Z,100970.00
2023-03-21T15:10:18.328Z,100940.00
2023-03-21T15:12:55.321Z,100963.75
2023-03-21T15:15:27.386Z,100945.94
2023-03-21T15:18:07.160Z,100944.91
2023-03-21T15:20:39.570Z,100942.09
2023-03-21T15:23:12.993Z,100955.31
2023-03-21T15:25:42.115Z,100936.84
2023-03-21T15:28:14.836Z,100951.81
2023-03-21T15:30:50.264Z,100947.34
2023-03-21T15:33:19.973Z,100949.84
2023-03-21T15:35:55.554Z,100943.72
2023-03-21T15:38:30.599Z,100948.28
2023-03-21T15:41:28.053Z,100954.44
2023-03-21T15:44:05.205Z,100954.44
2023-03-21T15:46:42.247Z,100953.59
2023-03-21T15:49:18.863Z,100940.38
2023-03-21T15:51:53.333Z,100944.88
2023-03-21T15:54:27.168Z,100941.44
2023-03-21T15:56:57.658Z,100954.72
2023-03-21T15:59:29.885Z,100964.38
2023-03-21T16:01:58.388Z,100948.59
2023-03-21T16:04:27.006Z,100964.38
2023-03-21T16:07:02.218Z,100967.84
2023-03-21T16:09:42.883Z,100967.78
2023-03-21T16:12:13.906Z,100960.88
2023-03-21T16:14:42.984Z,100954.59
2023-03-21T16:17:37.548Z,100961.66
2023-03-21T16:20:14.805Z,100975.72
2023-03-21T16:22:44.539Z,100978.44
2023-03-21T16:25:12.869Z,100960.72
2023-03-21T16:27:41.227Z,100959.81
2023-03-21T16:30:13.328Z,100968.66
2023-03-21T16:32:41.754Z,100951.97
2023-03-21T16:35:11.224Z,100960.94
2023-03-21T16:37:39.957Z,100951.44
2023-03-21T16:40:20.177Z,100932.19
2023-03-21T16:42:48.530Z,100961.09
2023-03-21T16:45:16.993Z,100951.44
2023-03-21T16:47:45.773Z,100949.56
2023-03-21T16:50:27.789Z,100945.13
2023-03-21T16:52:57.557Z,100942.69
2023-03-21T16:55:27.861Z,100945.47
2023-03-21T16:57:57.432Z,100951.44
2023-03-21T17:00:30.773Z,100944.47
2023-03-21T17:03:03.685Z,100961.38
2023-03-21T17:05:32.846Z,100942.84
2023-03-21T17:08:04.187Z,100925.91
2023-03-21T17:10:34.568Z,100941.78
2023-03-21T17:13:03.125Z,100946.31
2023-03-21T17:15:31.452Z,100940.16
2023-03-21T17:17:59.901Z,100938.31
2023-03-21T17:20:32.653Z,100938.34
2023-03-21T17:23:01.798Z,100934.94
2023-03-21T17:25:30.422Z,100939.19
2023-03-21T17:28:01.066Z,100933.09
2023-03-21T17:30:32.395Z,100945.59
2023-03-21T17:33:01.264Z,100936.84
2023-03-21T17:35:30.643Z,100951.75
2023-03-21T17:38:00.453Z,100950.19
2023-03-21T17:40:32.069Z,100962.56
2023-03-21T17:43:02.051Z,100952.81
2023-03-21T17:45:30.718Z,100953.75
2023-03-21T17:47:59.136Z,100948.63
2023-03-21T17:50:34.248Z,100918.78
2023-03-21T17:53:02.542Z,100954.75
2023-03-21T17:55:31.454Z,100940.56
2023-03-21T17:58:01.350Z,100935.38
2023-03-21T18:00:31.420Z,100929.41
2023-03-21T18:03:00.231Z,100939.81
2023-03-21T18:05:28.650Z,100944.22
2023-03-21T18:08:13.054Z,100938.00
2023-03-21T18:10:42.834Z,100944.28
2023-03-21T18:13:12.629Z,100933.63
2023-03-21T18:15:44.082Z,100908.22
2023-03-21T18:18:13.228Z,100922.34
2023-03-21T18:20:51.697Z,100926.75
2023-03-21T18:23:21.072Z,100922.41
2023-03-21T18:25:49.860Z,100907.50
2023-03-21T18:28:21.325Z,100919.78
2023-03-21T18:31:09.520Z,100922.53
2023-03-21T18:33:40.355Z,100910.28
2023-03-21T18:36:10.833Z,100924.34
2023-03-21T18:38:40.045Z,100916.34
2023-03-21T18:41:09.395Z,100922.59
2023-03-21T18:44:05.371Z,100924.44
2023-03-21T18:46:30.384Z,100927.94
2023-03-21T18:48:58.782Z,100926.97
2023-03-21T18:51:27.150Z,100926.13
2023-03-21T18:53:55.714Z,100926.16
2023-03-21T18:59:14.222Z,100926.34
2023-03-21T19:01:42.774Z,100925.50
2023-03-21T19:04:23.039Z,100941.28
2023-03-21T19:06:54.262Z,100932.47
2023-03-21T19:09:29.469Z,100940.41
2023-03-21T19:11:59.249Z,100937.66
2023-03-21T19:14:29.406Z,100936.00
2023-03-21T19:17:55.771Z,100933.28
2023-03-21T19:19:47.868Z,100933.31
2023-03-21T19:22:16.961Z,100921.88
2023-03-21T19:24:45.983Z,100926.31
2023-03-21T19:27:14.648Z,100928.09
2023-03-21T19:29:56.995Z,100922.88
2023-03-21T19:32:31.476Z,100914.81
2023-03-21T19:35:00.063Z,100902.44
2023-03-21T19:37:29.295Z,100906.00
2023-03-21T19:39:57.828Z,100915.56
2023-03-21T19:42:28.663Z,100912.00
2023-03-21T19:45:00.387Z,100904.00
2023-03-21T19:47:28.717Z,100906.69
2023-03-21T19:52:46.180Z,100897.03
2023-03-21T19:55:15.449Z,100897.16
2023-03-21T19:57:43.829Z,100887.38
2023-03-21T20:00:15.600Z,100894.47
2023-03-21T20:02:45.258Z,100901.50
2023-03-21T20:05:14.817Z,100893.59
2023-03-21T20:07:43.145Z,100888.31
2023-03-21T20:10:12.068Z,100891.88
2023-03-21T20:12:40.434Z,100882.16
2023-03-21T20:15:17.729Z,100880.44
2023-03-21T20:17:50.736Z,100887.50
2023-03-21T20:20:19.933Z,100878.66
2023-03-21T20:23:10.921Z,100872.56
2023-03-21T20:25:43.773Z,100869.91
2023-03-21T20:28:17.259Z,100859.41
2023-03-21T20:30:54.083Z,100869.97
2023-03-21T20:33:23.964Z,100857.63
2023-03-21T20:36:37.768Z,100852.25
2023-03-21T20:38:47.451Z,100856.72
2023-03-21T20:41:15.874Z,100862.88
2023-03-21T20:44:34.661Z,100848.66
2023-03-21T20:46:32.599Z,100862.88
2023-03-21T20:49:02.247Z,100861.97
2023-03-21T20:52:40.827Z,100856.81
2023-03-21T20:54:19.137Z,100860.31
2023-03-21T20:56:47.831Z,100849.75
2023-03-21T20:59:24.939Z,100858.63
2023-03-21T21:01:55.857Z,100849.75
2023-03-21T21:04:46.685Z,100863.81
2023-03-21T21:07:18.364Z,100847.97
2023-03-21T21:09:47.120Z,100848.91
2023-03-21T21:12:19.102Z,100846.34
2023-03-21T21:14:48.299Z,100854.31
2023-03-21T21:20:17.148Z,100849.91
2023-03-21T21:22:58.535Z,100857.81
2023-03-21T21:25:28.941Z,100839.31
2023-03-21T21:27:57.384Z,100842.94
2023-03-21T21:30:26.083Z,100828.97
2023-03-21T21:32:54.400Z,100841.13
2023-03-21T21:35:24.083Z,100826.06
2023-03-21T21:37:52.464Z,100832.25
2023-03-21T21:40:23.465Z,100830.59
2023-03-21T21:42:51.933Z,100821.72
2023-03-21T21:45:20.718Z,100832.41
2023-03-21T21:47:49.223Z,100833.25
2023-03-21T21:50:17.624Z,100831.53
2023-03-21T21:52:52.560Z,100833.28
2023-03-21T21:55:22.424Z,100823.56
2023-03-21T21:57:53.062Z,100822.66
2023-03-21T22:00:21.480Z,100813.91
2023-03-21T22:02:49.932Z,100813.06
2023-03-21T22:05:19.365Z,100789.34
2023-03-21T22:07:51.865Z,100817.50
2023-03-21T22:10:21.488Z,100818.38
2023-03-21T22:12:50.065Z,100810.41
2023-03-21T22:15:19.164Z,100811.28
2023-03-21T22:17:47.463Z,100816.53
2023-03-21T22:20:17.996Z,100808.63
2023-03-21T22:22:48.282Z,100814.84
2023-03-21T22:25:18.184Z,100798.00
2023-03-21T22:27:47.194Z,100810.41
2023-03-21T22:30:17.674Z,100807.75
2023-03-21T22:32:56.455Z,100792.72
2023-03-21T22:35:32.031Z,100783.97
2023-03-21T22:38:01.715Z,100792.81
2023-03-21T22:40:30.067Z,100801.59
2023-03-21T22:42:58.504Z,100797.22
2023-03-21T22:45:26.931Z,100804.19
2023-03-21T22:47:55.412Z,100788.44
2023-03-21T22:50:23.779Z,100806.09
2023-03-21T22:52:52.025Z,100788.50
2023-03-21T22:55:21.720Z,100798.19
2023-03-21T22:57:50.039Z,100790.34
2023-03-21T23:00:20.079Z,100799.88
2023-03-21T23:02:48.477Z,100792.84
2023-03-21T23:05:16.849Z,100794.56
2023-03-21T23:07:45.196Z,100788.38
2023-03-21T23:10:13.618Z,100798.03
2023-03-21T23:12:43.450Z,100779.53
2023-03-21T23:15:12.760Z,100781.34
2023-03-21T23:17:41.055Z,100800.75
2023-03-21T23:20:10.908Z,100788.50
2023-03-21T23:22:39.617Z,100787.59
2023-03-21T23:25:09.262Z,100782.22
2023-03-21T23:27:38.209Z,100767.28
2023-03-21T23:30:09.476Z,100783.06
2023-03-21T23:32:37.783Z,100764.66
2023-03-21T23:35:07.497Z,100773.38
2023-03-21T23:37:35.825Z,100771.56
2023-03-21T23:40:06.185Z,100766.25
2023-03-21T23:42:35.877Z,100771.56
2023-03-21T23:45:04.398Z,100765.41
2023-03-21T23:47:34.100Z,100718.91
2023-03-21T23:50:02.379Z,100751.31
2023-03-21T23:52:30.761Z,100749.47
2023-03-21T23:54:59.269Z,100752.16
2023-03-21T23:57:28.163Z,100756.59
2023-03-21T23:59:56.779Z,100749.59
